sensor_id;sensor_type;location;lat;lon;timestamp;P1;durP1;ratioP1;P2;durP2;ratioP2
42666;SDS011;28280;49.646;14.130;2023-03-14T00:09:04;2.65;;;1.60;;
42666;SDS011;28280;49.646;14.130;2023-03-14T00:19:25;2.10;;;1.25;;
42666;SDS011;28280;49.646;14.130;2023-03-14T00:29:47;2.63;;;1.55;;
42666;SDS011;28280;49.646;14.130;2023-03-14T00:40:08;3.08;;;1.40;;
42666;SDS011;28280;49.646;14.130;2023-03-14T00:50:30;2.78;;;1.60;;
42666;SDS011;28280;49.646;14.130;2023-03-14T01:00:51;2.63;;;1.50;;
42666;SDS011;28280;49.646;14.130;2023-03-14T01:11:13;2.60;;;1.40;;
42666;SDS011;28280;49.646;14.130;2023-03-14T01:21:36;2.50;;;1.45;;
42666;SDS011;28280;49.646;14.130;2023-03-14T01:31:57;2.20;;;1.27;;
42666;SDS011;28280;49.646;14.130;2023-03-14T01:42:19;2.70;;;1.55;;
42666;SDS011;28280;49.646;14.130;2023-03-14T01:52:44;2.75;;;1.48;;
42666;SDS011;28280;49.646;14.130;2023-03-14T02:03:14;2.97;;;1.58;;
42666;SDS011;28280;49.646;14.130;2023-03-14T02:13:38;2.17;;;1.45;;
42666;SDS011;28280;49.646;14.130;2023-03-14T02:24:22;3.33;;;1.42;;
42666;SDS011;28280;49.646;14.130;2023-03-14T02:34:56;2.27;;;1.30;;
42666;SDS011;28280;49.646;14.130;2023-03-14T02:55:46;2.58;;;1.38;;
42666;SDS011;28280;49.646;14.130;2023-03-14T03:06:12;2.05;;;1.38;;
42666;SDS011;28280;49.646;14.130;2023-03-14T03:16:34;2.33;;;1.40;;
42666;SDS011;28280;49.646;14.130;2023-03-14T03:26:55;3.22;;;1.40;;
42666;SDS011;28280;49.646;14.130;2023-03-14T03:37:18;1.92;;;1.10;;
42666;SDS011;28280;49.646;14.130;2023-03-14T03:47:40;2.28;;;1.00;;
42666;SDS011;28280;49.646;14.130;2023-03-14T03:58:01;1.65;;;1.20;;
42666;SDS011;28280;49.646;14.130;2023-03-14T04:08:23;2.97;;;1.40;;
42666;SDS011;28280;49.646;14.130;2023-03-14T04:18:44;1.35;;;1.00;;
42666;SDS011;28280;49.646;14.130;2023-03-14T04:29:06;1.48;;;1.00;;
42666;SDS011;28280;49.646;14.130;2023-03-14T04:39:28;2.28;;;1.40;;
42666;SDS011;28280;49.646;14.130;2023-03-14T04:49:59;2.00;;;1.40;;
42666;SDS011;28280;49.646;14.130;2023-03-14T05:00:22;1.40;;;1.05;;
42666;SDS011;28280;49.646;14.130;2023-03-14T05:10:43;1.17;;;1.00;;
42666;SDS011;28280;49.646;14.130;2023-03-14T05:21:31;1.80;;;0.90;;
42666;SDS011;28280;49.646;14.130;2023-03-14T05:32:11;1.38;;;1.00;;
42666;SDS011;28280;49.646;14.130;2023-03-14T05:42:58;1.20;;;0.80;;
42666;SDS011;28280;49.646;14.130;2023-03-14T05:53:52;1.17;;;0.80;;
42666;SDS011;28280;49.646;14.130;2023-03-14T06:04:34;0.90;;;0.77;;
42666;SDS011;28280;49.646;14.130;2023-03-14T06:14:56;2.10;;;0.70;;
42666;SDS011;28280;49.646;14.130;2023-03-14T06:25:18;1.52;;;1.00;;
42666;SDS011;28280;49.646;14.130;2023-03-14T06:35:41;0.95;;;0.73;;
42666;SDS011;28280;49.646;14.130;2023-03-14T06:46:04;0.90;;;0.70;;
42666;SDS011;28280;49.646;14.130;2023-03-14T06:56:27;1.05;;;0.85;;
42666;SDS011;28280;49.646;14.130;2023-03-14T07:06:50;0.85;;;0.73;;
42666;SDS011;28280;49.646;14.130;2023-03-14T07:17:11;1.33;;;0.73;;
42666;SDS011;28280;49.646;14.130;2023-03-14T07:27:33;0.80;;;0.60;;
42666;SDS011;28280;49.646;14.130;2023-03-14T07:37:54;1.27;;;0.80;;
42666;SDS011;28280;49.646;14.130;2023-03-14T07:48:25;0.80;;;0.70;;
42666;SDS011;28280;49.646;14.130;2023-03-14T07:58:47;0.75;;;0.60;;
42666;SDS011;28280;49.646;14.130;2023-03-14T08:09:09;0.93;;;0.60;;
42666;SDS011;28280;49.646;14.130;2023-03-14T08:19:31;0.70;;;0.60;;
42666;SDS011;28280;49.646;14.130;2023-03-14T08:29:52;0.55;;;0.55;;
42666;SDS011;28280;49.646;14.130;2023-03-14T08:40:13;0.80;;;0.60;;
42666;SDS011;28280;49.646;14.130;2023-03-14T08:50:34;0.90;;;0.60;;
42666;SDS011;28280;49.646;14.130;2023-03-14T09:00:56;0.60;;;0.50;;
42666;SDS011;28280;49.646;14.130;2023-03-14T09:11:17;0.75;;;0.50;;
42666;SDS011;28280;49.646;14.130;2023-03-14T09:21:39;0.55;;;0.50;;
42666;SDS011;28280;49.646;14.130;2023-03-14T09:32:00;1.30;;;0.63;;
42666;SDS011;28280;49.646;14.130;2023-03-14T09:42:23;2.88;;;0.68;;
42666;SDS011;28280;49.646;14.130;2023-03-14T09:52:48;0.70;;;0.68;;
42666;SDS011;28280;49.646;14.130;2023-03-14T10:13:33;2.90;;;0.70;;
42666;SDS011;28280;49.646;14.130;2023-03-14T10:23:55;1.13;;;0.75;;
42666;SDS011;28280;49.646;14.130;2023-03-14T10:34:38;0.75;;;0.70;;
42666;SDS011;28280;49.646;14.130;2023-03-14T10:45:00;1.05;;;0.70;;
42666;SDS011;28280;49.646;14.130;2023-03-14T10:55:24;0.70;;;0.60;;
42666;SDS011;28280;49.646;14.130;2023-03-14T11:05:52;1.00;;;0.60;;
42666;SDS011;28280;49.646;14.130;2023-03-14T11:16:28;1.30;;;0.60;;
42666;SDS011;28280;49.646;14.130;2023-03-14T11:37:46;1.42;;;0.60;;
42666;SDS011;28280;49.646;14.130;2023-03-14T11:48:17;0.85;;;0.60;;
42666;SDS011;28280;49.646;14.130;2023-03-14T11:58:54;0.80;;;0.60;;
42666;SDS011;28280;49.646;14.130;2023-03-14T12:09:18;2.08;;;0.60;;
42666;SDS011;28280;49.646;14.130;2023-03-14T12:19:40;0.80;;;0.60;;
42666;SDS011;28280;49.646;14.130;2023-03-14T12:30:02;0.77;;;0.57;;
42666;SDS011;28280;49.646;14.130;2023-03-14T12:40:38;3.88;;;0.77;;
42666;SDS011;28280;49.646;14.130;2023-03-14T12:51:05;0.68;;;0.55;;
42666;SDS011;28280;49.646;14.130;2023-03-14T13:01:36;2.53;;;0.70;;
42666;SDS011;28280;49.646;14.130;2023-03-14T13:12:14;0.70;;;0.50;;
42666;SDS011;28280;49.646;14.130;2023-03-14T13:22:38;1.38;;;0.65;;
42666;SDS011;28280;49.646;14.130;2023-03-14T13:32:59;0.70;;;0.55;;
42666;SDS011;28280;49.646;14.130;2023-03-14T13:43:27;1.30;;;0.70;;
42666;SDS011;28280;49.646;14.130;2023-03-14T13:53:55;1.02;;;0.60;;
42666;SDS011;28280;49.646;14.130;2023-03-14T14:04:18;0.65;;;0.60;;
42666;SDS011;28280;49.646;14.130;2023-03-14T14:25:05;0.90;;;0.50;;
42666;SDS011;28280;49.646;14.130;2023-03-14T14:35:31;1.52;;;0.63;;
42666;SDS011;28280;49.646;14.130;2023-03-14T14:45:54;1.05;;;0.70;;
42666;SDS011;28280;49.646;14.130;2023-03-14T14:56:19;1.23;;;0.70;;
42666;SDS011;28280;49.646;14.130;2023-03-14T15:06:46;1.30;;;0.80;;
42666;SDS011;28280;49.646;14.130;2023-03-14T15:17:11;1.38;;;0.80;;
42666;SDS011;28280;49.646;14.130;2023-03-14T15:27:32;2.60;;;0.82;;
42666;SDS011;28280;49.646;14.130;2023-03-14T15:37:53;1.23;;;0.80;;
42666;SDS011;28280;49.646;14.130;2023-03-14T15:48:19;1.75;;;0.80;;
42666;SDS011;28280;49.646;14.130;2023-03-14T15:58:42;1.52;;;0.73;;
42666;SDS011;28280;49.646;14.130;2023-03-14T16:09:07;1.33;;;0.70;;
42666;SDS011;28280;49.646;14.130;2023-03-14T16:19:29;0.75;;;0.60;;
42666;SDS011;28280;49.646;14.130;2023-03-14T16:29:51;1.00;;;0.70;;
42666;SDS011;28280;49.646;14.130;2023-03-14T16:40:13;1.02;;;0.70;;
42666;SDS011;28280;49.646;14.130;2023-03-14T16:50:34;1.13;;;0.75;;
42666;SDS011;28280;49.646;14.130;2023-03-14T17:00:55;1.17;;;0.80;;
42666;SDS011;28280;49.646;14.130;2023-03-14T17:11:18;0.98;;;0.60;;
42666;SDS011;28280;49.646;14.130;2023-03-14T17:21:39;1.05;;;0.80;;
42666;SDS011;28280;49.646;14.130;2023-03-14T17:32:00;1.95;;;0.93;;
42666;SDS011;28280;49.646;14.130;2023-03-14T17:42:22;0.80;;;0.70;;
42666;SDS011;28280;49.646;14.130;2023-03-14T17:52:43;1.23;;;0.65;;
42666;SDS011;28280;49.646;14.130;2023-03-14T18:03:04;1.95;;;0.70;;
42666;SDS011;28280;49.646;14.130;2023-03-14T18:13:25;0.80;;;0.70;;
42666;SDS011;28280;49.646;14.130;2023-03-14T18:23:47;0.75;;;0.60;;
42666;SDS011;28280;49.646;14.130;2023-03-14T18:34:09;0.82;;;0.50;;
42666;SDS011;28280;49.646;14.130;2023-03-14T18:44:30;0.80;;;0.60;;
42666;SDS011;28280;49.646;14.130;2023-03-14T18:54:52;1.13;;;0.70;;
42666;SDS011;28280;49.646;14.130;2023-03-14T19:05:13;0.73;;;0.65;;
42666;SDS011;28280;49.646;14.130;2023-03-14T19:15:35;1.80;;;0.90;;
42666;SDS011;28280;49.646;14.130;2023-03-14T19:25:56;1.02;;;0.82;;
42666;SDS011;28280;49.646;14.130;2023-03-14T19:36:27;3.05;;;0.88;;
42666;SDS011;28280;49.646;14.130;2023-03-14T19:46:57;1.52;;;0.90;;
42666;SDS011;28280;49.646;14.130;2023-03-14T19:57:19;1.42;;;0.93;;
42666;SDS011;28280;49.646;14.130;2023-03-14T20:07:40;3.08;;;0.80;;
42666;SDS011;28280;49.646;14.130;2023-03-14T20:18:03;1.10;;;0.80;;
42666;SDS011;28280;49.646;14.130;2023-03-14T20:28:24;2.22;;;0.85;;
42666;SDS011;28280;49.646;14.130;2023-03-14T20:38:45;1.60;;;0.65;;
42666;SDS011;28280;49.646;14.130;2023-03-14T20:49:06;0.70;;;0.60;;
42666;SDS011;28280;49.646;14.130;2023-03-14T20:59:27;0.82;;;0.63;;
42666;SDS011;28280;49.646;14.130;2023-03-14T21:09:48;0.90;;;0.65;;
42666;SDS011;28280;49.646;14.130;2023-03-14T21:20:13;1.35;;;0.95;;
42666;SDS011;28280;49.646;14.130;2023-03-14T21:30:34;0.82;;;0.63;;
42666;SDS011;28280;49.646;14.130;2023-03-14T21:40:56;1.52;;;0.77;;
42666;SDS011;28280;49.646;14.130;2023-03-14T21:51:17;1.45;;;0.90;;
42666;SDS011;28280;49.646;14.130;2023-03-14T22:01:38;1.45;;;0.82;;
42666;SDS011;28280;49.646;14.130;2023-03-14T22:12:00;2.00;;;1.02;;
42666;SDS011;28280;49.646;14.130;2023-03-14T22:22:22;1.60;;;0.90;;
42666;SDS011;28280;49.646;14.130;2023-03-14T22:32:43;2.53;;;1.20;;
42666;SDS011;28280;49.646;14.130;2023-03-14T22:43:04;2.42;;;1.20;;
42666;SDS011;28280;49.646;14.130;2023-03-14T22:53:25;2.88;;;1.02;;
42666;SDS011;28280;49.646;14.130;2023-03-14T23:03:47;1.80;;;1.10;;
42666;SDS011;28280;49.646;14.130;2023-03-14T23:14:08;2.92;;;1.00;;
42666;SDS011;28280;49.646;14.130;2023-03-14T23:24:29;3.05;;;1.10;;
42666;SDS011;28280;49.646;14.130;2023-03-14T23:34:50;1.55;;;0.95;;
42666;SDS011;28280;49.646;14.130;2023-03-14T23:45:11;2.03;;;1.08;;
42666;SDS011;28280;49.646;14.130;2023-03-14T23:55:33;1.85;;;1.10;;
